createdAt,value
2023-03-24T00:00:27.286Z,1001.38
2023-03-24T00:01:27.309Z,1001.40
2023-03-24T00:02:27.325Z,1001.35
2023-03-24T00:03:27.420Z,1001.33
2023-03-24T00:04:27.266Z,1001.29
2023-03-24T00:05:27.279Z,1001.27
2023-03-24T00:06:27.262Z,1001.26
2023-03-24T00:07:27.267Z,1001.25
2023-03-24T00:08:27.259Z,1001.24
2023-03-24T00:09:27.257Z,1001.19
2023-03-24T00:10:27.253Z,1001.19
2023-03-24T00:11:27.250Z,1001.15
2023-03-24T00:12:27.247Z,1001.18
2023-03-24T00:13:27.249Z,1001.16
2023-03-24T00:14:27.246Z,1001.11
2023-03-24T00:15:27.246Z,1001.08
2023-03-24T00:16:27.272Z,1001.05
2023-03-24T00:17:27.242Z,1001.03
2023-03-24T00:18:27.234Z,1001.01
2023-03-24T00:19:27.241Z,1001.03
2023-03-24T00:20:27.253Z,1001.08
2023-03-24T00:21:27.327Z,1001.06
2023-03-24T00:22:27.235Z,1001.04
2023-03-24T00:23:27.230Z,1001.04
2023-03-24T00:24:27.233Z,1001.02
2023-03-24T00:25:27.552Z,1001.05
2023-03-24T00:26:27.225Z,1001.02
2023-03-24T00:27:27.224Z,1001.01
2023-03-24T00:28:27.227Z,1001.00
2023-03-24T00:29:27.221Z,1001.02
2023-03-24T00:30:27.235Z,1001.00
2023-03-24T00:31:27.293Z,1000.99
2023-03-24T00:32:27.261Z,1000.94
2023-03-24T00:33:27.219Z,1000.93
2023-03-24T00:34:27.216Z,1000.94
2023-03-24T00:35:27.259Z,1000.93
2023-03-24T00:36:27.209Z,1000.92
2023-03-24T00:37:27.233Z,1000.93
2023-03-24T00:38:27.212Z,1000.95
2023-03-24T00:39:27.239Z,1000.92
2023-03-24T00:40:27.204Z,1000.97
2023-03-24T00:41:27.483Z,1000.94
2023-03-24T00:42:27.203Z,1000.95
2023-03-24T00:43:27.206Z,1000.93
2023-03-24T00:44:27.204Z,1000.92
2023-03-24T00:45:27.204Z,1000.90
2023-03-24T00:46:27.216Z,1000.88
2023-03-24T00:47:27.248Z,1000.87
2023-03-24T00:48:27.199Z,1000.84
2023-03-24T00:49:27.202Z,1000.84
2023-03-24T00:50:27.698Z,1000.81
2023-03-24T00:51:27.192Z,1000.81
2023-03-24T00:52:27.190Z,1000.81
2023-03-24T00:53:27.215Z,1000.81
2023-03-24T00:54:27.185Z,1000.81
2023-03-24T00:55:27.192Z,1000.82
2023-03-24T00:56:27.269Z,1000.75
2023-03-24T00:57:27.187Z,1000.80
2023-03-24T00:58:27.180Z,1000.78
2023-03-24T00:59:27.180Z,1000.78
2023-03-24T01:00:27.304Z,1000.77
2023-03-24T01:01:27.178Z,1000.72
2023-03-24T01:02:27.310Z,1000.72
2023-03-24T01:03:27.179Z,1000.67
2023-03-24T01:04:27.171Z,1000.68
2023-03-24T01:05:27.164Z,1000.68
2023-03-24T01:06:27.178Z,1000.73
2023-03-24T01:07:27.159Z,1000.68
2023-03-24T01:08:27.164Z,1000.64
2023-03-24T01:09:27.183Z,1000.62
2023-03-24T01:10:27.158Z,1000.66
2023-03-24T01:11:27.152Z,1000.64
2023-03-24T01:12:27.157Z,1000.62
2023-03-24T01:13:27.156Z,1000.59
2023-03-24T01:14:27.152Z,1000.66
2023-03-24T01:15:27.149Z,1000.60
2023-03-24T01:16:27.188Z,1000.61
2023-03-24T01:17:27.169Z,1000.57
2023-03-24T01:18:27.149Z,1000.59
2023-03-24T01:19:27.143Z,1000.55
2023-03-24T01:20:27.139Z,1000.54
2023-03-24T01:21:27.133Z,1000.51
2023-03-24T01:22:27.142Z,1000.50
2023-03-24T01:23:27.141Z,1000.47
2023-03-24T01:24:27.135Z,1000.47
2023-03-24T01:25:27.180Z,1000.41
2023-03-24T01:26:27.129Z,1000.42
2023-03-24T01:27:27.129Z,1000.33
2023-03-24T01:28:27.127Z,1000.33
2023-03-24T01:29:27.124Z,1000.33
2023-03-24T01:30:27.127Z,1000.28
2023-03-24T01:31:27.140Z,1000.26
2023-03-24T01:32:27.173Z,1000.23
2023-03-24T01:33:27.118Z,1000.18
2023-03-24T01:34:27.122Z,1000.17
2023-03-24T01:35:29.108Z,1000.12
2023-03-24T01:36:27.124Z,1000.17
2023-03-24T01:37:27.147Z,1000.13
2023-03-24T01:38:27.115Z,1000.14
2023-03-24T01:39:27.115Z,1000.13
2023-03-24T01:40:27.113Z,1000.18
2023-03-24T01:41:27.172Z,1000.15
2023-03-24T01:42:27.110Z,1000.13
2023-03-24T01:43:27.111Z,1000.09
2023-03-24T01:44:27.105Z,1000.09
2023-03-24T01:45:27.099Z,1000.11
2023-03-24T01:46:27.136Z,1000.05
2023-03-24T01:47:27.125Z,1000.05
2023-03-24T01:48:27.098Z,999.99
2023-03-24T01:49:27.097Z,999.99
2023-03-24T01:50:27.096Z,1000.03
2023-03-24T01:51:27.095Z,999.99
2023-03-24T01:52:27.099Z,999.95
2023-03-24T01:53:27.088Z,999.86
2023-03-24T01:54:27.091Z,999.82
2023-03-24T01:55:27.086Z,999.77
2023-03-24T01:56:27.115Z,999.71
2023-03-24T01:57:27.105Z,999.63
2023-03-24T01:58:27.089Z,999.65
2023-03-24T01:59:27.079Z,999.69
2023-03-24T02:00:27.081Z,999.66
2023-03-24T02:01:27.129Z,999.71
2023-03-24T02:02:27.115Z,999.73
2023-03-24T02:03:27.071Z,999.68
2023-03-24T02:04:27.125Z,999.71
2023-03-24T02:05:27.072Z,999.66
2023-03-24T02:06:27.079Z,999.65
2023-03-24T02:07:27.070Z,999.63
2023-03-24T02:08:27.069Z,999.65
2023-03-24T02:09:27.070Z,999.66
2023-03-24T02:10:27.066Z,999.65
2023-03-24T02:11:27.065Z,999.63
2023-03-24T02:12:27.065Z,999.62
2023-03-24T02:13:27.097Z,999.62
2023-03-24T02:14:27.060Z,999.57
2023-03-24T02:15:27.086Z,999.54
2023-03-24T02:16:27.114Z,999.53
2023-03-24T02:17:27.066Z,999.49
2023-03-24T02:18:27.055Z,999.46
2023-03-24T02:19:27.057Z,999.46
2023-03-24T02:20:27.053Z,999.43
2023-03-24T02:21:27.051Z,999.47
2023-03-24T02:22:27.054Z,999.46
2023-03-24T02:23:27.048Z,999.41
2023-03-24T02:24:27.059Z,999.45
2023-03-24T02:25:27.048Z,999.41
2023-03-24T02:26:27.047Z,999.43
2023-03-24T02:27:27.053Z,999.44
2023-03-24T02:28:27.049Z,999.45
2023-03-24T02:29:27.058Z,999.41
2023-03-24T02:30:27.041Z,999.39
2023-03-24T02:31:27.074Z,999.36
2023-03-24T02:32:27.070Z,999.33
2023-03-24T02:33:27.033Z,999.29
2023-03-24T02:34:27.035Z,999.24
2023-03-24T02:35:27.028Z,999.24
2023-03-24T02:36:27.033Z,999.18
2023-03-24T02:37:27.029Z,999.19
2023-03-24T02:38:27.033Z,999.16
2023-03-24T02:39:27.023Z,999.16
2023-03-24T02:40:27.032Z,999.11
2023-03-24T02:41:27.022Z,999.07
2023-03-24T02:42:27.031Z,999.05
2023-03-24T02:43:27.013Z,999.09
2023-03-24T02:44:27.023Z,999.04
2023-03-24T02:45:27.035Z,999.06
2023-03-24T02:46:27.030Z,999.05
2023-03-24T02:47:27.025Z,999.08
2023-03-24T02:48:27.015Z,999.04
2023-03-24T02:49:27.012Z,999.00
2023-03-24T02:50:27.011Z,999.04
2023-03-24T02:51:27.000Z,998.96
2023-03-24T02:52:27.004Z,999.00
2023-03-24T02:53:27.008Z,998.98
2023-03-24T02:54:27.005Z,998.93
2023-03-24T02:55:27.007Z,998.94
2023-03-24T02:56:27.052Z,998.93
2023-03-24T02:57:26.995Z,998.92
2023-03-24T02:58:26.993Z,998.91
2023-03-24T02:59:26.989Z,998.90
2023-03-24T03:00:26.990Z,998.90
2023-03-24T03:01:27.042Z,998.94
2023-03-24T03:02:26.998Z,998.92
2023-03-24T03:03:26.988Z,998.91
2023-03-24T03:04:29.192Z,998.92
2023-03-24T03:05:26.988Z,998.99
2023-03-24T03:06:26.979Z,998.96
2023-03-24T03:07:26.979Z,998.97
2023-03-24T03:08:26.987Z,998.90
2023-03-24T03:09:26.976Z,998.92
2023-03-24T03:10:26.974Z,998.91
2023-03-24T03:11:26.972Z,998.87
2023-03-24T03:12:26.973Z,998.86
2023-03-24T03:13:26.969Z,998.87
2023-03-24T03:14:26.996Z,998.82
2023-03-24T03:15:26.962Z,998.77
2023-03-24T03:16:26.967Z,998.79
2023-03-24T03:17:27.028Z,998.86
2023-03-24T03:18:26.964Z,998.81
2023-03-24T03:19:26.956Z,998.78
2023-03-24T03:20:26.971Z,998.75
2023-03-24T03:21:26.954Z,998.79
2023-03-24T03:22:26.961Z,998.78
2023-03-24T03:23:26.951Z,998.73
2023-03-24T03:24:27.578Z,998.75
2023-03-24T03:25:26.965Z,998.68
2023-03-24T03:26:26.962Z,998.68
2023-03-24T03:27:26.953Z,998.68
2023-03-24T03:28:26.954Z,998.65
2023-03-24T03:29:26.948Z,998.68
2023-03-24T03:30:26.951Z,998.63
2023-03-24T03:31:26.966Z,998.59
2023-03-24T03:32:26.947Z,998.59
2023-03-24T03:33:26.968Z,998.61
2023-03-24T03:34:26.945Z,998.59
2023-03-24T03:35:26.939Z,998.57
2023-03-24T03:36:26.943Z,998.58
2023-03-24T03:37:26.936Z,998.57
2023-03-24T03:38:26.944Z,998.57
2023-03-24T03:39:26.937Z,998.55
2023-03-24T03:40:26.934Z,998.51
2023-03-24T03:41:26.933Z,998.53
2023-03-24T03:42:26.929Z,998.49
2023-03-24T03:43:26.934Z,998.51
2023-03-24T03:44:26.927Z,998.50
2023-03-24T03:45:26.927Z,998.50
2023-03-24T03:46:26.968Z,998.49
2023-03-24T03:47:26.968Z,998.43
2023-03-24T03:48:26.926Z,998.46
2023-03-24T03:49:26.958Z,998.43
2023-03-24T03:50:26.928Z,998.40
2023-03-24T03:51:26.915Z,998.44
2023-03-24T03:52:26.923Z,998.44
2023-03-24T03:53:26.926Z,998.42
2023-03-24T03:54:26.915Z,998.44
2023-03-24T03:55:26.913Z,998.40
2023-03-24T03:56:26.955Z,998.37
2023-03-24T03:57:26.911Z,998.43
2023-03-24T03:58:26.919Z,998.40
2023-03-24T03:59:26.904Z,998.34
2023-03-24T04:00:26.906Z,998.34
2023-03-24T04:01:26.928Z,998.36
2023-03-24T04:02:26.986Z,998.33
2023-03-24T04:03:26.967Z,998.33
2023-03-24T04:04:26.896Z,998.29
2023-03-24T04:05:26.915Z,998.28
2023-03-24T04:06:26.894Z,998.23
2023-03-24T04:07:26.883Z,998.19
2023-03-24T04:08:27.219Z,998.24
2023-03-24T04:09:26.886Z,998.21
2023-03-24T04:10:26.897Z,998.20
2023-03-24T04:11:26.885Z,998.20
2023-03-24T04:12:26.886Z,998.17
2023-03-24T04:13:26.876Z,998.17
2023-03-24T04:14:26.884Z,998.14
2023-03-24T04:15:26.875Z,998.15
2023-03-24T04:16:26.922Z,998.13
2023-03-24T04:17:26.943Z,998.08
2023-03-24T04:18:26.890Z,998.04
2023-03-24T04:19:26.871Z,998.04
2023-03-24T04:20:26.865Z,998.05
2023-03-24T04:21:26.889Z,998.01
2023-03-24T04:22:26.890Z,998.08
2023-03-24T04:23:26.858Z,998.04
2023-03-24T04:24:26.884Z,997.97
2023-03-24T04:25:26.867Z,997.95
2023-03-24T04:26:26.863Z,997.98
2023-03-24T04:27:26.866Z,997.95
2023-03-24T04:28:26.856Z,997.95
2023-03-24T04:29:26.857Z,997.94
2023-03-24T04:30:26.860Z,997.92
2023-03-24T04:31:26.911Z,997.89
2023-03-24T04:32:26.863Z,997.87
2023-03-24T04:33:26.841Z,997.84
2023-03-24T04:34:26.850Z,997.82
2023-03-24T04:35:26.839Z,997.78
2023-03-24T04:36:26.844Z,997.77
2023-03-24T04:37:26.859Z,997.77
2023-03-24T04:38:26.836Z,997.74
2023-03-24T04:39:26.838Z,997.78
2023-03-24T04:40:26.836Z,997.71
2023-03-24T04:41:26.827Z,997.69
2023-03-24T04:42:26.828Z,997.69
2023-03-24T04:43:26.852Z,997.69
2023-03-24T04:44:26.828Z,997.67
2023-03-24T04:45:26.863Z,997.66
2023-03-24T04:46:26.873Z,997.65
2023-03-24T04:47:26.870Z,997.67
2023-03-24T04:48:26.818Z,997.63
2023-03-24T04:49:26.825Z,997.59
2023-03-24T04:50:26.823Z,997.54
2023-03-24T04:51:26.812Z,997.61
2023-03-24T04:52:26.821Z,997.55
2023-03-24T04:53:26.835Z,997.54
2023-03-24T04:54:26.810Z,997.53
2023-03-24T04:55:26.810Z,997.51
2023-03-24T04:56:26.828Z,997.54
2023-03-24T04:57:26.809Z,997.46
2023-03-24T04:58:26.810Z,997.50
2023-03-24T04:59:26.803Z,997.48
2023-03-24T05:00:26.803Z,997.48
2023-03-24T05:01:26.830Z,997.48
2023-03-24T05:02:26.837Z,997.51
2023-03-24T05:03:26.878Z,997.53
2023-03-24T05:04:26.794Z,997.53
2023-03-24T05:05:26.810Z,997.49
2023-03-24T05:06:26.785Z,997.46
2023-03-24T05:07:26.783Z,997.49
2023-03-24T05:08:26.786Z,997.41
2023-03-24T05:09:26.799Z,997.47
2023-03-24T05:10:26.792Z,997.41
2023-03-24T05:11:26.772Z,997.45
2023-03-24T05:12:26.772Z,997.42
2023-03-24T05:13:26.787Z,997.41
2023-03-24T05:14:26.774Z,997.46
2023-03-24T05:15:26.799Z,997.42
2023-03-24T05:16:26.835Z,997.43
2023-03-24T05:17:26.790Z,997.31
2023-03-24T05:18:26.765Z,997.35
2023-03-24T05:19:26.770Z,997.35
2023-03-24T05:20:26.760Z,997.32
2023-03-24T05:21:26.762Z,997.38
2023-03-24T05:22:26.755Z,997.34
2023-03-24T05:23:26.754Z,997.32
2023-03-24T05:24:26.754Z,997.35
2023-03-24T05:25:26.769Z,997.32
2023-03-24T05:26:26.750Z,997.27
2023-03-24T05:27:26.746Z,997.37
2023-03-24T05:28:26.753Z,997.42
2023-03-24T05:29:26.746Z,997.44
2023-03-24T05:30:26.759Z,997.40
2023-03-24T05:31:26.758Z,997.43
2023-03-24T05:32:26.771Z,997.37
2023-03-24T05:33:26.756Z,997.37
2023-03-24T05:34:26.734Z,997.38
2023-03-24T05:35:26.732Z,997.37
2023-03-24T05:36:26.789Z,997.32
2023-03-24T05:37:26.740Z,997.40
2023-03-24T05:38:26.736Z,997.37
2023-03-24T05:39:26.731Z,997.31
2023-03-24T05:40:26.744Z,997.35
2023-03-24T05:41:26.760Z,997.34
2023-03-24T05:42:26.738Z,997.34
2023-03-24T05:43:26.731Z,997.33
2023-03-24T05:44:26.730Z,997.40
2023-03-24T05:45:26.747Z,997.37
2023-03-24T05:46:26.853Z,997.34
2023-03-24T05:47:26.732Z,997.30
2023-03-24T05:48:26.723Z,997.37
2023-03-24T05:49:26.714Z,997.33
2023-03-24T05:50:26.708Z,997.31
2023-03-24T05:51:26.713Z,997.29
2023-03-24T05:52:28.785Z,997.28
2023-03-24T05:53:26.709Z,997.29
2023-03-24T05:54:26.709Z,997.29
2023-03-24T05:55:26.705Z,997.28
2023-03-24T05:56:26.706Z,997.36
2023-03-24T05:57:26.721Z,997.32
2023-03-24T05:58:26.700Z,997.29
2023-03-24T05:59:26.700Z,997.26
2023-03-24T06:00:26.706Z,997.21
2023-03-24T06:01:26.698Z,997.21
2023-03-24T06:02:26.763Z,997.21
2023-03-24T06:03:26.865Z,997.15
2023-03-24T06:04:26.729Z,997.16
2023-03-24T06:05:26.696Z,997.17
2023-03-24T06:06:26.685Z,997.09
2023-03-24T06:07:26.984Z,997.33
2023-03-24T06:08:26.679Z,997.13
2023-03-24T06:09:26.684Z,997.14
2023-03-24T06:10:26.678Z,997.25
2023-03-24T06:11:26.681Z,997.15
2023-03-24T06:12:26.673Z,997.09
2023-03-24T06:13:26.773Z,997.00
2023-03-24T06:14:26.673Z,997.02
2023-03-24T06:15:26.711Z,997.01
2023-03-24T06:16:26.698Z,997.02
2023-03-24T06:17:26.719Z,996.92
2023-03-24T06:18:26.662Z,996.95
2023-03-24T06:19:26.665Z,996.98
2023-03-24T06:20:26.667Z,996.90
2023-03-24T06:21:26.665Z,996.94
2023-03-24T06:22:26.664Z,996.97
2023-03-24T06:23:26.662Z,996.89
2023-03-24T06:24:26.661Z,996.91
2023-03-24T06:25:26.673Z,996.93
2023-03-24T06:26:26.653Z,996.94
2023-03-24T06:27:26.661Z,996.94
2023-03-24T06:28:26.649Z,996.99
2023-03-24T06:29:26.674Z,996.93
2023-03-24T06:30:26.662Z,996.99
2023-03-24T06:31:26.719Z,996.91
2023-03-24T06:32:26.687Z,996.90
2023-03-24T06:33:26.649Z,996.95
2023-03-24T06:34:26.647Z,996.86
2023-03-24T06:35:26.659Z,996.88
2023-03-24T06:36:26.643Z,996.89
2023-03-24T06:37:26.646Z,996.92
2023-03-24T06:38:26.647Z,996.89
2023-03-24T06:39:26.637Z,996.98
2023-03-24T06:40:26.639Z,996.85
2023-03-24T06:41:26.637Z,996.92
2023-03-24T06:42:26.638Z,996.92
2023-03-24T06:43:26.642Z,996.89
2023-03-24T06:44:26.626Z,996.86
2023-03-24T06:45:26.661Z,996.89
2023-03-24T06:46:26.652Z,996.93
2023-03-24T06:47:26.701Z,996.90
2023-03-24T06:48:26.654Z,996.93
2023-03-24T06:49:26.638Z,996.88
2023-03-24T06:50:26.625Z,996.88
2023-03-24T06:51:26.624Z,996.79
2023-03-24T06:52:26.624Z,996.89
2023-03-24T06:53:26.623Z,996.86
2023-03-24T06:54:26.616Z,996.76
2023-03-24T06:55:26.622Z,996.83
2023-03-24T06:56:26.628Z,996.88
2023-03-24T06:57:26.619Z,996.84
2023-03-24T06:58:26.618Z,996.78
2023-03-24T06:59:26.613Z,996.79
2023-03-24T07:00:26.611Z,996.87
2023-03-24T07:01:26.699Z,996.83
2023-03-24T07:02:26.633Z,996.76
2023-03-24T07:03:26.702Z,996.80
2023-03-24T07:04:26.599Z,996.80
2023-03-24T07:05:26.613Z,996.76
2023-03-24T07:06:26.609Z,996.71
2023-03-24T07:07:53.351Z,996.77
2023-03-24T07:08:37.113Z,996.72
2023-03-24T07:09:26.601Z,996.80
2023-03-24T07:10:26.611Z,996.71
2023-03-24T07:11:26.602Z,996.74
2023-03-24T07:12:26.590Z,996.70
2023-03-24T07:13:26.595Z,996.69
2023-03-24T07:14:26.708Z,996.68
2023-03-24T07:15:26.604Z,996.66
2023-03-24T07:16:26.658Z,996.67
2023-03-24T07:17:26.713Z,996.68
2023-03-24T07:18:26.623Z,996.68
2023-03-24T07:19:26.590Z,996.72
2023-03-24T07:20:26.587Z,996.73
2023-03-24T07:21:26.588Z,996.64
2023-03-24T07:22:26.577Z,996.58
2023-03-24T07:23:26.585Z,996.55
2023-03-24T07:24:26.582Z,996.54
2023-03-24T07:25:26.616Z,996.53
2023-03-24T07:26:26.597Z,996.61
2023-03-24T07:27:26.592Z,996.50
2023-03-24T07:28:26.574Z,996.49
2023-03-24T07:29:26.573Z,996.50
2023-03-24T07:30:37.191Z,996.53
2023-03-24T07:31:26.646Z,996.59
2023-03-24T07:32:26.598Z,996.60
2023-03-24T07:33:26.617Z,996.73
2023-03-24T07:34:26.569Z,996.83
2023-03-24T07:35:26.568Z,996.86
2023-03-24T07:36:26.586Z,996.82
2023-03-24T07:37:26.569Z,996.75
2023-03-24T07:38:26.574Z,996.66
2023-03-24T07:39:26.570Z,996.66
2023-03-24T07:40:26.562Z,996.62
2023-03-24T07:41:26.570Z,996.80
2023-03-24T07:42:26.579Z,997.13
2023-03-24T07:43:26.558Z,997.25
2023-03-24T07:44:26.823Z,997.16
2023-03-24T07:45:26.605Z,997.35
2023-03-24T07:46:26.612Z,997.23
2023-03-24T07:47:28.154Z,996.95
2023-03-24T07:48:26.554Z,996.66
2023-03-24T07:49:26.582Z,996.53
2023-03-24T07:50:26.565Z,996.40
2023-03-24T07:51:26.555Z,996.31
2023-03-24T07:52:26.558Z,996.39
2023-03-24T07:53:26.560Z,996.23
2023-03-24T07:54:26.558Z,996.35
2023-03-24T07:55:26.564Z,996.33
2023-03-24T07:56:26.598Z,996.42
2023-03-24T07:57:26.559Z,996.52
2023-03-24T07:58:26.559Z,996.37
2023-03-24T07:59:26.829Z,996.40
2023-03-24T08:00:26.574Z,996.41
2023-03-24T08:01:26.553Z,996.42
2023-03-24T08:02:26.638Z,996.45
2023-03-24T08:03:26.742Z,996.47
2023-03-24T08:04:26.608Z,996.44
2023-03-24T08:05:26.577Z,996.52
2023-03-24T08:06:26.546Z,996.49
2023-03-24T08:07:26.549Z,996.49
2023-03-24T08:08:26.547Z,996.51
2023-03-24T08:09:26.551Z,996.53
2023-03-24T08:10:26.550Z,996.87
2023-03-24T08:11:26.547Z,996.53
2023-03-24T08:12:26.553Z,996.52
2023-03-24T08:13:26.545Z,996.56
2023-03-24T08:14:26.539Z,996.51
2023-03-24T08:15:26.545Z,996.48
2023-03-24T08:16:26.592Z,996.51
2023-03-24T08:17:26.554Z,996.46
2023-03-24T08:18:26.541Z,996.41
2023-03-24T08:19:26.548Z,996.46
2023-03-24T08:20:26.554Z,996.50
2023-03-24T08:21:26.576Z,996.48
2023-03-24T08:22:26.536Z,996.41
2023-03-24T08:23:26.545Z,996.39
2023-03-24T08:24:26.538Z,996.49
2023-03-24T08:25:26.538Z,996.44
2023-03-24T08:26:26.531Z,996.39
2023-03-24T08:27:26.534Z,996.34
2023-03-24T08:28:26.520Z,996.42
2023-03-24T08:29:26.530Z,996.38
2023-03-24T08:30:26.592Z,996.31
2023-03-24T08:31:26.561Z,996.28
2023-03-24T08:32:26.560Z,996.22
2023-03-24T08:33:26.536Z,996.31
2023-03-24T08:34:26.529Z,996.35
2023-03-24T08:35:26.523Z,996.41
2023-03-24T08:36:26.529Z,996.36
2023-03-24T08:37:26.596Z,996.34
2023-03-24T08:38:26.522Z,996.30
2023-03-24T08:39:26.522Z,996.37
2023-03-24T08:40:26.516Z,996.34
2023-03-24T08:41:26.523Z,996.28
2023-03-24T08:42:26.517Z,996.23
2023-03-24T08:43:26.519Z,996.23
2023-03-24T08:44:26.505Z,996.32
2023-03-24T08:45:26.526Z,996.28
2023-03-24T08:46:26.643Z,996.29
2023-03-24T08:47:26.574Z,996.25
2023-03-24T08:48:26.513Z,996.20
2023-03-24T08:49:26.504Z,996.27
2023-03-24T08:50:26.511Z,996.30
2023-03-24T08:51:26.504Z,996.25
2023-03-24T08:52:26.511Z,996.19
2023-03-24T08:53:26.517Z,996.16
2023-03-24T08:54:26.525Z,996.27
2023-03-24T08:55:26.506Z,996.31
2023-03-24T08:56:26.539Z,996.19
2023-03-24T08:57:26.497Z,996.23
2023-03-24T08:58:26.498Z,996.26
2023-03-24T08:59:26.493Z,996.28
2023-03-24T09:00:26.483Z,996.21
2023-03-24T09:01:26.521Z,996.25
2023-03-24T09:02:26.485Z,996.21
2023-03-24T09:03:26.490Z,996.18
2023-03-24T09:04:26.530Z,996.19
2023-03-24T09:05:37.148Z,996.20
2023-03-24T09:06:26.477Z,996.35
2023-03-24T09:07:26.481Z,996.38
2023-03-24T09:08:26.507Z,996.27
2023-03-24T09:09:26.502Z,996.26
2023-03-24T09:10:26.471Z,996.27
2023-03-24T09:11:26.469Z,996.24
2023-03-24T09:12:26.468Z,996.40
2023-03-24T09:13:26.480Z,996.26
2023-03-24T09:14:26.469Z,996.25
2023-03-24T09:15:26.468Z,996.30
2023-03-24T09:16:26.512Z,996.32
2023-03-24T09:17:26.524Z,996.36
2023-03-24T09:18:26.469Z,996.35
2023-03-24T09:19:26.464Z,996.35
2023-03-24T09:20:26.455Z,996.38
2023-03-24T09:21:26.458Z,996.49
2023-03-24T09:22:26.469Z,996.54
2023-03-24T09:23:26.453Z,996.51
2023-03-24T09:24:26.465Z,996.57
2023-03-24T09:25:26.489Z,996.54
2023-03-24T09:26:26.486Z,996.54
2023-03-24T09:27:26.472Z,996.54
2023-03-24T09:28:26.451Z,996.54
2023-03-24T09:29:26.449Z,996.54
2023-03-24T09:30:27.403Z,996.55
2023-03-24T09:31:26.476Z,996.54
2023-03-24T09:32:26.464Z,996.50
2023-03-24T09:33:26.452Z,996.48
2023-03-24T09:34:26.451Z,996.50
2023-03-24T09:35:26.448Z,996.51
2023-03-24T09:36:26.439Z,996.51
2023-03-24T09:37:26.442Z,996.54
2023-03-24T09:38:26.443Z,996.51
2023-03-24T09:39:26.440Z,996.54
2023-03-24T09:40:26.435Z,996.64
2023-03-24T09:41:26.459Z,996.55
2023-03-24T09:42:26.432Z,996.51
2023-03-24T09:43:26.438Z,996.63
2023-03-24T09:44:26.427Z,996.56
2023-03-24T09:45:26.437Z,996.65
2023-03-24T09:46:26.474Z,996.67
2023-03-24T09:47:26.488Z,996.51
2023-03-24T09:48:26.419Z,996.58
2023-03-24T09:49:26.421Z,996.59
2023-03-24T09:50:26.423Z,996.65
2023-03-24T09:51:26.424Z,996.75
2023-03-24T09:52:26.421Z,996.83
2023-03-24T09:53:26.415Z,996.87
2023-03-24T09:54:26.416Z,996.86
2023-03-24T09:55:26.420Z,996.89
2023-03-24T09:56:26.490Z,996.78
2023-03-24T09:57:26.429Z,996.93
2023-03-24T09:58:26.413Z,996.76
2023-03-24T09:59:26.410Z,996.77
2023-03-24T10:00:26.460Z,996.88
2023-03-24T10:01:26.497Z,996.89
2023-03-24T10:02:26.505Z,996.82
2023-03-24T10:03:26.473Z,996.79
2023-03-24T10:04:26.406Z,996.81
2023-03-24T10:05:26.412Z,996.84
2023-03-24T10:06:26.407Z,996.89
2023-03-24T10:07:26.400Z,996.82
2023-03-24T10:08:26.403Z,996.85
2023-03-24T10:09:26.399Z,996.83
2023-03-24T10:10:26.407Z,996.92
2023-03-24T10:11:26.401Z,996.77
2023-03-24T10:12:26.406Z,996.70
2023-03-24T10:13:26.424Z,996.72
2023-03-24T10:14:26.409Z,996.75
2023-03-24T10:15:37.226Z,996.71
2023-03-24T10:16:26.479Z,996.81
2023-03-24T10:17:26.429Z,996.83
2023-03-24T10:18:26.404Z,996.84
2023-03-24T10:19:26.399Z,996.86
2023-03-24T10:20:26.408Z,996.82
2023-03-24T10:21:26.393Z,996.84
2023-03-24T10:22:26.393Z,996.98
2023-03-24T10:23:26.404Z,996.90
2023-03-24T10:24:26.390Z,996.71
2023-03-24T10:25:26.389Z,996.81
2023-03-24T10:26:26.402Z,996.67
2023-03-24T10:27:26.393Z,996.58
2023-03-24T10:28:26.390Z,996.60
2023-03-24T10:29:26.414Z,996.58
2023-03-24T10:30:26.394Z,996.58
2023-03-24T10:31:26.426Z,996.69
2023-03-24T10:32:26.458Z,996.62
2023-03-24T10:33:26.392Z,996.66
2023-03-24T10:34:26.391Z,996.67
2023-03-24T10:35:26.382Z,996.66
2023-03-24T10:36:26.440Z,996.72
2023-03-24T10:37:26.391Z,996.73
2023-03-24T10:38:26.390Z,996.67
2023-03-24T10:39:37.866Z,996.72
2023-03-24T10:40:26.386Z,996.72
2023-03-24T10:41:26.378Z,996.72
2023-03-24T10:42:26.388Z,996.70
2023-03-24T10:43:26.389Z,996.71
2023-03-24T10:44:26.383Z,996.65
2023-03-24T10:45:26.482Z,996.60
2023-03-24T10:46:26.444Z,996.58
2023-03-24T10:47:26.422Z,996.79
2023-03-24T10:48:26.380Z,996.89
2023-03-24T10:49:26.377Z,996.90
2023-03-24T10:50:26.378Z,996.93
2023-03-24T10:51:26.380Z,996.92
2023-03-24T10:52:26.381Z,996.89
2023-03-24T10:53:26.373Z,997.00
2023-03-24T10:54:26.395Z,996.98
2023-03-24T10:55:26.374Z,996.91
2023-03-24T10:56:26.382Z,996.91
2023-03-24T10:57:26.376Z,996.85
2023-03-24T10:58:26.373Z,996.82
2023-03-24T10:59:26.378Z,996.89
2023-03-24T11:00:26.386Z,996.79
2023-03-24T11:01:26.447Z,996.81
2023-03-24T11:02:26.494Z,996.79
2023-03-24T11:03:26.378Z,996.87
2023-03-24T11:04:26.370Z,996.78
2023-03-24T11:05:26.363Z,996.79
2023-03-24T11:06:26.365Z,996.87
2023-03-24T11:07:26.378Z,996.87
2023-03-24T11:08:26.364Z,996.83
2023-03-24T11:09:26.363Z,996.83
2023-03-24T11:10:26.367Z,996.86
2023-03-24T11:11:26.362Z,996.90
2023-03-24T11:12:26.366Z,996.85
2023-03-24T11:13:26.360Z,996.81
2023-03-24T11:14:26.361Z,996.81
2023-03-24T11:15:26.352Z,996.68
2023-03-24T11:16:26.411Z,996.73
2023-03-24T11:17:26.411Z,996.75
2023-03-24T11:18:26.371Z,996.73
2023-03-24T11:19:26.356Z,996.66
2023-03-24T11:20:26.363Z,996.71
2023-03-24T11:21:26.360Z,996.72
2023-03-24T11:22:26.356Z,996.81
2023-03-24T11:23:26.354Z,996.82
2023-03-24T11:24:26.364Z,996.78
2023-03-24T11:25:26.354Z,996.80
2023-03-24T11:26:26.357Z,996.87
2023-03-24T11:27:26.355Z,996.83
2023-03-24T11:28:26.361Z,996.90
2023-03-24T11:29:26.355Z,996.93
2023-03-24T11:30:26.355Z,996.95
2023-03-24T11:31:26.367Z,997.06
2023-03-24T11:32:26.417Z,997.02
2023-03-24T11:33:34.867Z,996.99
2023-03-24T11:34:26.357Z,997.05
2023-03-24T11:35:35.434Z,997.06
2023-03-24T11:36:26.404Z,997.02
2023-03-24T11:37:26.352Z,997.09
2023-03-24T11:38:26.353Z,997.04
2023-03-24T11:39:26.365Z,997.06
2023-03-24T11:40:26.362Z,997.01
2023-03-24T11:41:26.348Z,996.93
2023-03-24T11:42:26.349Z,996.95
2023-03-24T11:43:26.358Z,996.89
2023-03-24T11:44:26.362Z,996.97
2023-03-24T11:45:26.368Z,996.95
2023-03-24T11:46:26.453Z,996.96
2023-03-24T11:47:26.379Z,996.95
2023-03-24T11:48:26.385Z,996.97
2023-03-24T11:49:26.389Z,996.95
2023-03-24T11:50:26.353Z,996.99
2023-03-24T11:51:26.369Z,996.91
2023-03-24T11:52:26.355Z,996.97
2023-03-24T11:53:26.347Z,997.07
2023-03-24T11:54:29.003Z,996.99
2023-03-24T11:55:26.346Z,997.02
2023-03-24T11:56:26.376Z,996.96
2023-03-24T11:57:26.354Z,997.01
2023-03-24T11:58:26.454Z,996.99
2023-03-24T11:59:26.351Z,997.03
2023-03-24T12:00:27.916Z,996.97
2023-03-24T12:01:26.356Z,997.02
2023-03-24T12:02:26.426Z,997.02
2023-03-24T12:03:26.558Z,997.02
2023-03-24T12:04:26.363Z,997.03
2023-03-24T12:05:26.431Z,997.07
2023-03-24T12:06:26.394Z,996.99
2023-03-24T12:07:26.368Z,997.07
2023-03-24T12:08:26.416Z,997.09
2023-03-24T12:09:26.358Z,997.07
2023-03-24T12:10:26.360Z,997.07
2023-03-24T12:11:26.355Z,997.08
2023-03-24T12:12:26.360Z,997.12
2023-03-24T12:13:32.777Z,997.14
2023-03-24T12:14:26.358Z,997.10
2023-03-24T12:15:28.597Z,997.12
2023-03-24T12:16:26.393Z,997.13
2023-03-24T12:17:26.383Z,997.16
2023-03-24T12:18:26.373Z,997.08
2023-03-24T12:19:26.357Z,997.00
2023-03-24T12:20:26.358Z,996.90
2023-03-24T12:21:26.379Z,996.77
2023-03-24T12:22:26.370Z,996.83
2023-03-24T12:23:26.360Z,996.76
2023-03-24T12:24:26.366Z,996.80
2023-03-24T12:25:26.363Z,996.84